createdAt,value
2019-05-13T05:54:42.863Z,99.90
2019-05-13T06:44:45.083Z,99.90
2019-05-13T06:55:17.045Z,99.90
2019-05-13T07:19:18.616Z,99.90
2019-05-13T08:48:14.474Z,97.00
2019-05-13T08:50:44.546Z,92.80
2019-05-13T08:53:16.056Z,90.10
2019-05-13T08:55:45.497Z,96.00
2019-05-13T08:58:14.953Z,92.40
2019-05-13T09:00:52.715Z,91.60
2019-05-13T09:03:22.309Z,85.80
2019-05-13T09:05:53.453Z,92.40
2019-05-13T09:08:24.357Z,92.10
2019-05-13T09:10:56.889Z,92.20
2019-05-13T09:13:26.116Z,90.00
2019-05-13T09:15:55.623Z,87.00
2019-05-13T09:18:25.092Z,87.80
2019-05-13T09:20:54.529Z,82.10
2019-05-13T09:23:24.061Z,63.50
2019-05-13T09:25:53.577Z,73.30
2019-05-13T09:28:23.031Z,76.60
2019-05-13T09:30:53.337Z,67.80
2019-05-13T09:33:24.116Z,70.10
2019-05-13T09:35:53.863Z,79.00
2019-05-13T09:38:23.338Z,81.80
2019-05-13T09:40:53.315Z,85.10
2019-05-13T09:43:23.044Z,80.10
2019-05-13T09:45:52.703Z,84.80
2019-05-13T09:48:22.927Z,90.60
2019-05-13T09:50:52.491Z,83.90
2019-05-13T09:53:22.587Z,90.90
2019-05-13T09:55:52.545Z,84.70
2019-05-13T09:58:22.645Z,92.20
2019-05-13T10:00:53.028Z,81.20
2019-05-13T10:05:53.892Z,85.70
2019-05-13T10:08:23.403Z,90.80
2019-05-13T10:10:53.085Z,89.90
2019-05-13T10:13:23.310Z,95.30
2019-05-13T10:15:53.074Z,94.50
2019-05-13T10:18:25.157Z,92.20
2019-05-13T10:20:58.935Z,90.70
2019-05-13T10:23:32.500Z,90.00
2019-05-13T10:26:03.910Z,82.30
2019-05-13T10:28:33.863Z,90.00
2019-05-13T10:31:04.157Z,87.60
2019-05-13T10:33:35.088Z,86.70
2019-05-13T10:36:04.852Z,87.10
2019-05-13T10:38:34.512Z,90.40
2019-05-13T10:41:04.097Z,92.00
2019-05-13T10:43:36.797Z,92.50
2019-05-13T10:46:04.926Z,93.90
2019-05-13T10:48:34.346Z,96.30
2019-05-13T10:51:04.049Z,96.70
2019-05-13T10:53:33.588Z,96.60
2019-05-13T10:56:03.527Z,97.00
2019-05-13T10:58:33.143Z,95.60
2019-05-13T11:01:03.207Z,96.30
2019-05-13T11:03:33.279Z,95.00
2019-05-13T11:06:02.885Z,91.10
2019-05-13T11:08:33.395Z,90.50
2019-05-13T11:11:03.051Z,96.80
2019-05-13T11:13:50.817Z,92.10
2019-05-13T11:16:03.621Z,94.80
2019-05-13T11:18:33.066Z,95.50
2019-05-13T11:21:03.589Z,91.00
2019-05-13T11:23:33.030Z,85.10
2019-05-13T11:26:03.342Z,90.00
2019-05-13T11:28:33.352Z,92.30
2019-05-13T11:31:03.527Z,90.60
2019-05-13T11:33:33.301Z,92.00
2019-05-13T11:36:03.473Z,94.00
2019-05-13T11:38:33.303Z,92.50
2019-05-13T11:41:03.239Z,87.90
2019-05-13T11:43:33.798Z,89.80
2019-05-13T11:46:03.605Z,89.00
2019-05-13T11:48:33.033Z,86.70
2019-05-13T11:51:03.987Z,94.30
2019-05-13T11:53:37.671Z,92.90
2019-05-13T11:56:05.974Z,90.30
2019-05-13T11:58:35.386Z,92.60
2019-05-13T12:01:05.712Z,93.50
2019-05-13T12:03:35.160Z,93.00
2019-05-13T12:06:04.773Z,90.30
2019-05-13T12:08:34.547Z,90.00
2019-05-13T12:11:04.733Z,90.50
2019-05-13T12:13:35.289Z,93.00
2019-05-13T12:16:05.807Z,93.30
2019-05-13T12:18:39.323Z,93.10
2019-05-13T12:21:06.393Z,94.50
2019-05-13T12:23:35.840Z,94.20
2019-05-13T12:26:05.506Z,93.00
2019-05-13T12:28:34.892Z,92.80
2019-05-13T12:31:04.624Z,91.20
2019-05-13T12:33:34.064Z,90.60
2019-05-13T12:36:03.581Z,90.50
2019-05-13T12:38:33.631Z,85.50
2019-05-13T12:41:05.364Z,91.30
2019-05-13T12:43:34.482Z,85.30
2019-05-13T12:46:04.264Z,80.20
2019-05-13T12:48:33.831Z,80.20
2019-05-13T12:51:03.434Z,86.00
2019-05-13T12:53:32.934Z,84.60
2019-05-13T12:58:34.444Z,75.50
2019-05-13T13:01:04.102Z,71.70
2019-05-13T13:03:33.644Z,77.00
2019-05-13T13:06:25.910Z,65.50
2019-05-13T13:08:43.738Z,73.40
2019-05-13T13:11:05.679Z,66.20
2019-05-13T13:13:56.859Z,60.10
2019-05-13T13:16:06.508Z,60.30
2019-05-13T13:18:36.404Z,58.40
2019-05-13T13:21:07.725Z,52.50
2019-05-13T13:23:37.001Z,47.70
2019-05-13T13:26:13.971Z,53.80
2019-05-13T13:28:37.517Z,47.60
2019-05-13T13:31:07.019Z,41.90
2019-05-13T13:33:36.476Z,47.20
2019-05-13T13:36:05.936Z,44.00
2019-05-13T13:38:36.178Z,44.70
2019-05-13T13:41:05.747Z,44.10
2019-05-13T13:43:36.859Z,46.40
2019-05-13T13:46:23.165Z,46.60
2019-05-13T13:48:37.343Z,46.60
2019-05-13T13:51:06.780Z,45.50
2019-05-13T13:53:36.292Z,45.00
2019-05-13T13:56:05.681Z,42.40
2019-05-13T13:58:35.208Z,46.70
2019-05-13T14:01:11.882Z,46.30
2019-05-13T14:03:35.803Z,45.50
2019-05-13T14:06:06.547Z,44.60
2019-05-13T14:06:25.463Z,84.70
2019-05-13T14:06:35.508Z,75.50
2019-05-13T14:08:36.684Z,41.90
2019-05-13T14:11:06.153Z,47.70
2019-05-13T14:13:35.619Z,46.30
2019-05-13T14:16:05.132Z,44.90
2019-05-13T14:18:34.681Z,44.80
2019-05-13T14:21:04.246Z,40.70
2019-05-13T14:23:33.710Z,39.00
2019-05-13T14:26:03.154Z,40.00
2019-05-13T14:28:32.939Z,37.10
2019-05-13T14:31:02.471Z,37.70
2019-05-13T14:33:35.225Z,43.40
2019-05-13T14:36:03.061Z,42.10
2019-05-13T14:38:32.937Z,41.80
2019-05-13T14:41:03.496Z,43.10
2019-05-13T14:43:33.132Z,39.90
2019-05-13T14:46:02.722Z,40.40
2019-05-13T14:48:33.319Z,41.40
2019-05-13T14:51:02.731Z,45.30
2019-05-13T14:53:32.568Z,44.60
2019-05-13T14:56:03.318Z,40.30
2019-05-13T14:58:33.096Z,36.40
2019-05-13T15:01:15.711Z,36.10
2019-05-13T15:03:33.889Z,35.00
2019-05-13T15:06:03.766Z,32.20
2019-05-13T15:08:33.289Z,32.40
2019-05-13T15:11:03.912Z,28.90
2019-05-13T15:13:33.373Z,31.20
2019-05-13T15:16:02.809Z,30.10
2019-05-13T15:18:33.402Z,29.50
2019-05-13T15:21:02.912Z,31.80
2019-05-13T15:23:32.402Z,32.00
2019-05-13T15:26:02.414Z,36.30
2019-05-13T15:28:32.128Z,37.90
2019-05-13T15:31:02.625Z,40.80
2019-05-13T15:33:32.884Z,40.70
2019-05-13T15:36:02.584Z,41.40
2019-05-13T15:38:32.281Z,40.70
2019-05-13T15:41:02.219Z,41.50
2019-05-13T15:43:32.147Z,38.40
2019-05-13T15:46:02.752Z,37.90
2019-05-13T15:48:32.503Z,34.30
2019-05-13T15:51:02.336Z,28.20
2019-05-13T15:53:32.226Z,28.20
2019-05-13T15:56:02.705Z,28.60
2019-05-13T15:58:41.366Z,31.00
2019-05-13T16:01:04.442Z,35.40
2019-05-13T16:03:33.964Z,38.50
2019-05-13T16:06:03.561Z,42.30
2019-05-13T16:08:33.007Z,42.20
2019-05-13T16:11:02.595Z,42.70
2019-05-13T16:13:33.067Z,42.10
2019-05-13T16:16:02.724Z,43.90
2019-05-13T16:18:32.167Z,40.30
2019-05-13T16:21:02.004Z,39.20
2019-05-13T16:23:32.702Z,33.30
2019-05-13T16:26:02.171Z,29.70
2019-05-13T16:28:32.391Z,28.70
2019-05-13T16:31:02.648Z,28.90
2019-05-13T16:33:32.282Z,27.50
2019-05-13T16:36:02.635Z,27.80
2019-05-13T16:38:32.982Z,27.60
2019-05-13T16:41:02.743Z,32.50
2019-05-13T16:43:32.477Z,35.90
2019-05-13T16:46:01.929Z,38.80
2019-05-13T16:48:32.353Z,40.10
2019-05-13T16:51:02.092Z,42.70
2019-05-13T16:53:31.781Z,45.40
2019-05-13T16:56:01.958Z,50.30
2019-05-13T16:58:32.508Z,49.20
2019-05-13T17:01:03.836Z,51.70
2019-05-13T17:03:33.338Z,53.60
2019-05-13T17:06:02.876Z,55.50
2019-05-13T17:08:32.375Z,57.80
2019-05-13T17:11:02.344Z,58.10
2019-05-13T17:13:31.842Z,59.20
2019-05-13T17:16:01.723Z,61.20
2019-05-13T17:18:32.513Z,63.00
2019-05-13T17:21:03.185Z,63.80
2019-05-13T17:23:32.632Z,59.00
2019-05-13T17:26:02.761Z,60.90
2019-05-13T17:28:34.171Z,55.20
2019-05-13T17:31:03.559Z,55.00
2019-05-13T17:33:33.098Z,55.70
2019-05-13T17:36:03.760Z,58.60
2019-05-13T17:38:33.224Z,59.80
2019-05-13T17:41:02.735Z,61.40
2019-05-13T17:43:32.389Z,64.60
2019-05-13T17:46:02.271Z,65.40
2019-05-13T17:48:32.957Z,68.80
2019-05-13T17:51:02.747Z,71.10
2019-05-13T17:53:32.687Z,69.80
2019-05-13T17:56:03.214Z,72.80
2019-05-13T17:58:32.676Z,70.70
2019-05-13T18:01:02.189Z,69.60
2019-05-13T18:03:32.245Z,69.40
2019-05-13T18:06:02.717Z,71.60
2019-05-13T18:08:32.333Z,72.50
2019-05-13T18:11:02.571Z,73.00
2019-05-13T18:13:32.501Z,75.60
2019-05-13T18:16:02.704Z,76.60
2019-05-13T18:18:42.541Z,77.50
2019-05-13T18:21:03.965Z,77.10
2019-05-13T18:23:33.415Z,78.10
2019-05-13T18:26:02.928Z,78.10
2019-05-13T18:28:32.384Z,78.90
2019-05-13T18:31:01.980Z,79.40
2019-05-13T18:33:32.112Z,80.50
2019-05-13T18:36:02.143Z,81.30
2019-05-13T18:38:31.608Z,82.20
2019-05-13T18:41:01.738Z,84.80
2019-05-13T18:43:32.543Z,86.00
2019-05-13T18:46:02.355Z,82.40
2019-05-13T18:48:32.389Z,84.20
2019-05-13T18:51:01.933Z,86.30
2019-05-13T18:53:32.094Z,86.70
2019-05-13T18:56:02.192Z,86.80
2019-05-13T18:58:31.922Z,87.10
2019-05-13T19:01:01.582Z,88.10
2019-05-13T19:03:32.394Z,88.00
2019-05-13T19:06:02.027Z,89.70
2019-05-13T19:08:32.058Z,90.40
2019-05-13T19:11:01.873Z,90.70
2019-05-13T19:13:32.368Z,91.10
2019-05-13T19:16:03.740Z,91.40
2019-05-13T19:18:33.293Z,92.20
2019-05-13T19:21:05.689Z,92.70
2019-05-13T19:23:35.147Z,93.50
2019-05-13T19:26:04.661Z,93.60
2019-05-13T19:28:35.259Z,94.10
2019-05-13T19:31:04.751Z,94.50
2019-05-13T19:33:34.225Z,94.70
2019-05-13T19:36:03.715Z,95.20
2019-05-13T19:38:33.250Z,95.40
2019-05-13T19:41:02.702Z,95.40
2019-05-13T19:43:32.190Z,95.30
2019-05-13T19:46:01.914Z,95.80
2019-05-13T19:48:32.560Z,96.20
2019-05-13T19:51:05.116Z,96.10
2019-05-13T19:53:34.708Z,96.20
2019-05-13T19:56:04.199Z,96.40
2019-05-13T19:58:33.755Z,96.90
2019-05-13T20:01:04.386Z,96.80
2019-05-13T20:03:33.857Z,97.30
2019-05-13T20:06:03.283Z,97.30
2019-05-13T20:08:32.785Z,97.40
2019-05-13T20:11:02.454Z,97.30
2019-05-13T20:13:31.898Z,97.10
2019-05-13T20:16:01.665Z,97.10
2019-05-13T20:18:32.145Z,97.10
2019-05-13T20:21:02.888Z,97.00
2019-05-13T20:23:32.377Z,97.00
2019-05-13T20:26:01.827Z,97.10
2019-05-13T20:28:31.826Z,96.60
2019-05-13T20:31:01.861Z,96.40
2019-05-13T20:33:32.310Z,96.40
2019-05-13T20:36:02.813Z,96.10
2019-05-13T20:38:32.249Z,96.10
2019-05-13T20:41:01.706Z,95.90
2019-05-13T20:43:32.781Z,95.80
2019-05-13T20:46:02.343Z,95.80
2019-05-13T20:48:32.167Z,95.80
2019-05-13T20:51:02.820Z,94.70
2019-05-13T20:53:32.321Z,91.10
2019-05-13T20:56:02.020Z,86.30
2019-05-13T20:58:32.038Z,81.60
2019-05-13T21:01:02.314Z,76.50
2019-05-13T21:03:32.149Z,73.80
2019-05-13T21:06:01.595Z,72.30
2019-05-13T21:08:32.141Z,71.60
2019-05-13T21:11:02.411Z,70.60
2019-05-13T21:13:32.028Z,69.10
2019-05-13T21:16:02.233Z,69.70
2019-05-13T21:18:31.968Z,70.20
2019-05-13T21:21:01.483Z,71.30
2019-05-13T21:23:31.389Z,71.20
2019-05-13T21:26:01.642Z,70.80
2019-05-13T21:28:31.290Z,71.00
2019-05-13T21:31:02.228Z,71.10
2019-05-13T21:33:31.780Z,70.50
2019-05-13T21:36:01.820Z,70.10
2019-05-13T21:38:32.407Z,69.50
2019-05-13T21:41:02.200Z,70.10
2019-05-13T21:43:32.381Z,68.90
2019-05-13T21:46:02.300Z,69.50
2019-05-13T21:48:32.409Z,68.80
2019-05-13T21:51:02.208Z,68.40
2019-05-13T21:53:32.869Z,68.80
2019-05-13T21:56:02.542Z,68.70
2019-05-13T21:58:32.062Z,69.20
2019-05-13T22:01:02.432Z,69.50
2019-05-13T22:03:33.576Z,69.10
2019-05-13T22:06:03.295Z,70.00
2019-05-13T22:08:32.796Z,69.90
2019-05-13T22:11:02.324Z,69.60
2019-05-13T22:13:31.833Z,70.30
2019-05-13T22:16:01.802Z,70.40
2019-05-13T22:18:31.655Z,70.40
2019-05-13T22:21:01.549Z,71.30
2019-05-13T22:23:32.074Z,72.30
2019-05-13T22:26:01.990Z,73.20
2019-05-13T22:28:31.551Z,73.60
2019-05-13T22:31:01.522Z,73.70
2019-05-13T22:33:32.381Z,73.00
2019-05-13T22:36:02.126Z,72.50
2019-05-13T22:38:32.238Z,72.40
2019-05-13T22:41:02.319Z,72.20
2019-05-13T22:43:32.193Z,72.30
2019-05-13T22:46:01.887Z,72.20
2019-05-13T22:48:31.917Z,72.80
2019-05-13T22:51:01.653Z,72.80
2019-05-13T22:53:31.788Z,72.60
2019-05-13T22:56:01.447Z,72.90
2019-05-13T22:58:32.095Z,73.90
2019-05-13T23:01:02.569Z,74.00
2019-05-13T23:03:32.478Z,74.40
2019-05-13T23:06:01.998Z,74.10
2019-05-13T23:08:32.392Z,73.60
2019-05-13T23:11:02.308Z,74.80
2019-05-13T23:13:31.873Z,74.50
2019-05-13T23:16:02.318Z,74.70
2019-05-13T23:18:32.081Z,74.30
2019-05-13T23:21:02.379Z,75.00
2019-05-13T23:23:32.063Z,74.50
2019-05-13T23:26:01.485Z,74.00
2019-05-13T23:28:32.282Z,73.80
2019-05-13T23:31:01.940Z,75.50
2019-05-13T23:33:31.538Z,74.90
2019-05-13T23:36:01.521Z,75.00
2019-05-13T23:38:32.036Z,75.60
2019-05-13T23:41:02.163Z,75.60
2019-05-13T23:43:31.885Z,76.30
2019-05-13T23:46:01.401Z,76.10
2019-05-13T23:48:32.141Z,76.10
2019-05-13T23:51:01.693Z,76.70
2019-05-13T23:53:32.217Z,77.30
2019-05-13T23:56:02.081Z,76.70
2019-05-13T23:58:32.142Z,76.70
